ADDS METAR Data INFO
IDs: Format: Raw Decoded Include TAF

Data at: 0401 UTC 11 Dec 2017

KCFE 110355Z AUTO 00000KT 10SM OVC085 M05/M07 A2999 RMK AO2 T10511066
KCFE 110335Z AUTO 00000KT 10SM OVC085 M06/M07 A2999 RMK AO2 T10601075
KCFE 110315Z AUTO 00000KT 10SM SCT085 M07/M08 A2999 RMK AO2 T10671081
KCFE 110255Z AUTO 00000KT 10SM CLR M07/M08 A3000 RMK AO2 T10701085
KCFE 110235Z AUTO 00000KT 10SM CLR M07/M09 A3000 RMK AO2 T10751090
KCFE 110215Z AUTO 00000KT 10SM CLR M08/M09 A3001 RMK AO2 T10771093
KCFE 110155Z AUTO 00000KT 10SM CLR M07/M09 A3002 RMK AO2 T10751091
KCFE 110135Z AUTO 00000KT 10SM CLR M07/M09 A3002 RMK AO2 T10701087
KCFE 110115Z AUTO 00000KT 10SM CLR M07/M08 A3003 RMK AO2 T10661084
KCFE 110055Z AUTO 00000KT 10SM CLR M06/M08 A3003 RMK AO2 T10651085
KCFE 110035Z AUTO 00000KT 10SM CLR M06/M08 A3004 RMK AO2 T10601081
KCFE 110015Z AUTO 00000KT 10SM CLR M05/M08 A3005 RMK AO2 T10531076
KCFE 102355Z AUTO 00000KT 10SM CLR M04/M07 A3005 RMK AO2 T10431069 11002 21043
KCFE 102335Z AUTO 00000KT 10SM CLR M04/M07 A3005 RMK AO2 T10361068
KCFE 102315Z AUTO 00000KT 10SM CLR M03/M07 A3005 RMK AO2 T10301066
KCFE 102255Z AUTO 00000KT 10SM CLR M03/M06 A3005 RMK AO2 T10261065
KCFE 102235Z AUTO 00000KT 10SM CLR M02/M06 A3005 RMK AO2 T10201062
KCFE 102215Z AUTO 31003KT 10SM CLR M01/M06 A3004 RMK AO2 T10151061
KCFE 102155Z AUTO 29005KT 10SM CLR M01/M06 A3004 RMK AO2 T10101060
KCFE 102135Z AUTO 30004KT 10SM CLR M01/M06 A3003 RMK AO2 T10071060
KCFE 102115Z AUTO 27005KT 10SM SCT110 00/M06 A3002 RMK AO2 T10031057
KCFE 102055Z AUTO 27005KT 10SM OVC110 00/M05 A3001 RMK AO2 T10031055
KCFE 102035Z AUTO 25003KT 10SM SCT090 OVC110 M01/M06 A3002 RMK AO2 T10071058
KCFE 102015Z AUTO 30004KT 10SM OVC110 M01/M06 A3001 RMK AO2 T10071059
KCFE 101955Z AUTO 32005KT 10SM OVC120 M01/M06 A3002 RMK AO2 T10091060
KCFE 101935Z AUTO 30003KT 10SM BKN120 00/M06 A3001 RMK AO2 T10051060
KCFE 101915Z AUTO 30008KT 10SM BKN021 BKN120 M01/M06 A3003 RMK AO2 T10111060
KCFE 101855Z AUTO 32005KT 10SM OVC021 M01/M06 A3003 RMK AO2 T10101059
KCFE 101835Z AUTO 30007KT 10SM OVC019 M01/M06 A3003 RMK AO2 T10151060
KCFE 101815Z AUTO 30008KT 10SM OVC017 M01/M06 A3003 RMK AO2 T10151061
KCFE 101755Z AUTO 31005KT 10SM OVC017 M02/M06 A3002 RMK AO2 T10181060 11018 21032
KCFE 101735Z AUTO 33007KT 10SM OVC017 M02/M06 A3001 RMK AO2 T10211061
KCFE 101715Z AUTO 31007KT 10SM OVC017 M02/M06 A3000 RMK AO2 T10221060
KCFE 101655Z AUTO 32007KT 10SM OVC017 M02/M06 A3000 RMK AO2 T10241061
KCFE 101635Z AUTO 33008KT 10SM OVC017 M02/M06 A3000 RMK AO2 T10231058
KCFE 101615Z AUTO 32006KT 10SM OVC017 M02/M06 A3001 RMK AO2 T10251058
KCFE 101555Z AUTO 31008KT 10SM OVC017 M03/M06 A3000 RMK AO2 T10261060
KCFE 101535Z AUTO 31007KT 10SM OVC019 M03/M06 A2998 RMK AO2 T10261057
KCFE 101515Z AUTO 30010KT 10SM OVC021 M03/M06 A2998 RMK AO2 T10271057
KCFE 101455Z AUTO 31006KT 10SM OVC021 M03/M06 A2997 RMK AO2 T10291059
KCFE 101435Z AUTO 30006KT 10SM OVC023 M03/M06 A2997 RMK AO2 T10301060
KCFE 101415Z AUTO 30006KT 10SM OVC023 M03/M06 A2996 RMK AO2 T10321061
KCFE 101355Z AUTO 30005KT 10SM OVC023 M03/M06 A2994 RMK AO2 T10321061
KCFE 101335Z AUTO 31007KT 10SM OVC023 M03/M06 A2994 RMK AO2 T10321061
KCFE 101315Z AUTO 30005KT 10SM OVC023 M03/M06 A2993 RMK AO2 T10311061
KCFE 101255Z AUTO 30007KT 10SM OVC023 M03/M06 A2993 RMK AO2 T10301060
KCFE 101235Z AUTO 29006KT 10SM OVC023 M03/M06 A2991 RMK AO2 T10311060
KCFE 101215Z AUTO 30006KT 10SM OVC023 M03/M06 A2992 RMK AO2 T10321060
KCFE 101155Z AUTO 31006KT 10SM OVC023 M03/M06 A2990 RMK AO2 T10321060 11032 21066
KCFE 101135Z AUTO 30005KT 10SM BKN023 M03/M06 A2990 RMK AO2 T10351060
KCFE 101115Z AUTO 30007KT 10SM CLR M04/M06 A2988 RMK AO2 T10361063
KCFE 101055Z AUTO 31007KT 10SM CLR M04/M06 A2987 RMK AO2 T10371063
KCFE 101035Z AUTO 31007KT 10SM CLR M04/M06 A2986 RMK AO2 T10371062
KCFE 101015Z AUTO 31006KT 10SM CLR M04/M06 A2984 RMK AO2 T10371062
KCFE 100955Z AUTO 30007KT 10SM CLR M04/M06 A2984 RMK AO2 T10371060
KCFE 100935Z AUTO 29005KT 10SM CLR M04/M06 A2983 RMK AO2 T10441061
KCFE 100915Z AUTO 28005KT 10SM CLR M06/M07 A2983 RMK AO2 T10601075
KCFE 100855Z AUTO 25003KT 10SM CLR M06/M08 A2982 RMK AO2 T10611076
KCFE 100835Z AUTO 25003KT 10SM CLR M06/M07 A2981 RMK AO2 T10601075
KCFE 100815Z AUTO 25003KT 10SM CLR M06/M08 A2981 RMK AO2 T10631078
KCFE 100755Z AUTO 00000KT 10SM CLR M06/M08 A2981 RMK AO2 T10651081
KCFE 100735Z AUTO 00000KT 10SM CLR M06/M08 A2981 RMK AO2 T10651080
KCFE 100715Z AUTO 00000KT 10SM CLR M06/M08 A2981 RMK AO2 T10631081
KCFE 100655Z AUTO 22003KT 10SM CLR M06/M08 A2980 RMK AO2 T10601080
KCFE 100635Z AUTO 20004KT 10SM CLR M06/M08 A2980 RMK AO2 T10561078
KCFE 100615Z AUTO 19004KT 10SM CLR M06/M08 A2981 RMK AO2 T10561080
KCFE 100555Z AUTO 19004KT 10SM CLR M06/M08 A2981 RMK AO2 T10561080 11050 21059 410271076
KCFE 100535Z AUTO 19004KT 10SM CLR M06/M08 A2982 RMK AO2 T10581083
KCFE 100515Z AUTO 20005KT 10SM CLR M06/M08 A2984 RMK AO2 T10591085
KCFE 100455Z AUTO 19003KT 10SM CLR M06/M08 A2985 RMK AO2 T10561085
KCFE 100435Z AUTO 18006KT 10SM CLR M05/M09 A2985 RMK AO2 T10551086
KCFE 100415Z AUTO 19005KT 10SM SCT080 M05/M09 A2987 RMK AO2 T10511086
KCFE 100355Z AUTO 20005KT 10SM BKN080 M05/M09 A2990 RMK AO2 T10501086
KCFE 100335Z AUTO 19008G14KT 10SM CLR M05/M09 A2988 RMK AO2 T10511087
KCFE 100315Z AUTO 19008G14KT 10SM SCT080 SCT120 M05/M09 A2988 RMK AO2 T10551091
KCFE 100255Z AUTO 18008KT 10SM OVC080 M05/M09 A2991 RMK AO2 T10551091
KCFE 100235Z AUTO 18006KT 10SM OVC100 M05/M09 A2994 RMK AO2 T10551092
KCFE 100215Z AUTO 19006KT 10SM OVC100 M05/M09 A2996 RMK AO2 T10551094
KCFE 100155Z AUTO 19006KT 10SM OVC100 M05/M09 A2996 RMK AO2 T10551095
KCFE 100136Z AUTO 21007KT 10SM OVC100 M05/M09 A2999 RMK AO2 T10551095
KCFE 100115Z AUTO 21007KT 10SM BKN110 M05/M10 A2999 RMK AO2 T10551099
KCFE 100055Z AUTO 19006KT 10SM BKN110 M05/M10 A2999 RMK AO2 T10551100
KCFE 100036Z AUTO 20007KT 10SM BKN110 M05/M10 A3000 RMK AO2 T10551100
KCFE 100015Z AUTO 20005KT 10SM SCT100 SCT120 M05/M10 A3001 RMK AO2 T10551100
KCFE 092355Z AUTO 21005KT 10SM SCT070 BKN090 OVC120 M06/M10 A3002 RMK AO2 T10561100 11047 21063
KCFE 092335Z AUTO 20005KT 10SM BKN080 OVC090 M05/M10 A3003 RMK AO2 T10551102
KCFE 092315Z AUTO 22004KT 10SM SCT080 BKN090 BKN120 M06/M10 A3004 RMK AO2 T10561102
KCFE 092255Z AUTO 22003KT 10SM SCT120 M06/M10 A3004 RMK AO2 T10581105
KCFE 092236Z AUTO 23005KT 10SM CLR M06/M10 A3004 RMK AO2 T10601105
KCFE 092215Z AUTO 25006KT 10SM CLR M05/M11 A3006 RMK AO2 T10551106
KCFE 092155Z AUTO 24005KT 10SM CLR M05/M11 A3006 RMK AO2 T10551110
KCFE 092135Z AUTO 25006KT 10SM CLR M05/M11 A3008 RMK AO2 T10521110
KCFE 092115Z AUTO 24007KT 10SM CLR M05/M10 A3008 RMK AO2 T10471105
KCFE 092055Z AUTO 25005KT 10SM SCT026 M05/M11 A3008 RMK AO2 T10501106
KCFE 092035Z AUTO 25004KT 10SM BKN026 M05/M11 A3009 RMK AO2 T10551110
KCFE 092015Z AUTO 23005KT 10SM OVC026 M06/M11 A3009 RMK AO2 T10561114
KCFE 091955Z AUTO 27004KT 10SM BKN026 M06/M11 A3009 RMK AO2 T10561113
KCFE 091935Z AUTO 26005KT 10SM BKN026 M06/M12 A3009 RMK AO2 T10601116
KCFE 091915Z AUTO 26004KT 10SM OVC024 M06/M11 A3009 RMK AO2 T10601114
KCFE 091855Z AUTO 27006KT 10SM OVC024 M06/M11 A3010 RMK AO2 T10591108
KCFE 091835Z AUTO 27005KT 10SM OVC024 M06/M11 A3010 RMK AO2 T10611110
KCFE 091815Z AUTO 35005KT 10SM OVC024 M06/M12 A3011 RMK AO2 T10621116
KCFE 091755Z AUTO 34005KT 10SM OVC024 M06/M12 A3012 RMK AO2 T10621116 11061 21076
KCFE 091735Z AUTO 33004KT 10SM OVC024 M07/M12 A3012 RMK AO2 T10661116
KCFE 091715Z AUTO 32006KT 10SM OVC024 M07/M11 A3012 RMK AO2 T10661115
KCFE 091655Z AUTO 33007KT 10SM -SN OVC024 M07/M12 A3012 RMK AO2 T10671116
KCFE 091635Z AUTO 31005KT 10SM OVC024 M07/M12 A3012 RMK AO2 T10701118
KCFE 091615Z AUTO 34007KT 10SM OVC024 M07/M12 A3012 RMK AO2 T10711121